sensor_id;sensor_type;location;lat;lon;timestamp;P1;durP1;ratioP1;P2;durP2;ratioP2
21562;SDS011;10942;47.894;11.424;2023-06-10T00:01:44;7.38;;;5.88;;
21562;SDS011;10942;47.894;11.424;2023-06-10T00:04:15;8.43;;;5.72;;
21562;SDS011;10942;47.894;11.424;2023-06-10T00:06:43;8.88;;;6.15;;
21562;SDS011;10942;47.894;11.424;2023-06-10T00:09:09;9.07;;;5.82;;
21562;SDS011;10942;47.894;11.424;2023-06-10T00:11:36;7.45;;;5.25;;
21562;SDS011;10942;47.894;11.424;2023-06-10T00:14:03;8.05;;;6.45;;
21562;SDS011;10942;47.894;11.424;2023-06-10T00:16:29;8.93;;;5.97;;
21562;SDS011;10942;47.894;11.424;2023-06-10T00:18:55;8.45;;;5.53;;
21562;SDS011;10942;47.894;11.424;2023-06-10T00:21:25;8.05;;;5.93;;
21562;SDS011;10942;47.894;11.424;2023-06-10T00:23:52;10.43;;;6.15;;
21562;SDS011;10942;47.894;11.424;2023-06-10T00:26:18;7.97;;;5.75;;
21562;SDS011;10942;47.894;11.424;2023-06-10T00:28:44;8.68;;;5.82;;
21562;SDS011;10942;47.894;11.424;2023-06-10T00:31:10;7.57;;;5.40;;
21562;SDS011;10942;47.894;11.424;2023-06-10T00:33:38;7.60;;;5.28;;
21562;SDS011;10942;47.894;11.424;2023-06-10T00:36:04;6.53;;;5.63;;
21562;SDS011;10942;47.894;11.424;2023-06-10T00:38:30;8.02;;;5.50;;
21562;SDS011;10942;47.894;11.424;2023-06-10T00:40:57;7.78;;;5.35;;
21562;SDS011;10942;47.894;11.424;2023-06-10T00:43:23;7.72;;;5.55;;
21562;SDS011;10942;47.894;11.424;2023-06-10T00:45:49;7.45;;;5.68;;
21562;SDS011;10942;47.894;11.424;2023-06-10T00:48:16;8.68;;;6.00;;
21562;SDS011;10942;47.894;11.424;2023-06-10T00:50:42;11.02;;;5.95;;
21562;SDS011;10942;47.894;11.424;2023-06-10T00:53:09;8.43;;;6.00;;
21562;SDS011;10942;47.894;11.424;2023-06-10T00:55:35;7.72;;;5.72;;
21562;SDS011;10942;47.894;11.424;2023-06-10T00:58:02;6.97;;;5.57;;
21562;SDS011;10942;47.894;11.424;2023-06-10T01:00:29;7.30;;;5.60;;
21562;SDS011;10942;47.894;11.424;2023-06-10T01:02:55;7.25;;;5.45;;
21562;SDS011;10942;47.894;11.424;2023-06-10T01:05:21;7.40;;;5.50;;
21562;SDS011;10942;47.894;11.424;2023-06-10T01:07:53;8.50;;;5.68;;
21562;SDS011;10942;47.894;11.424;2023-06-10T01:10:24;8.75;;;5.70;;
21562;SDS011;10942;47.894;11.424;2023-06-10T01:12:55;8.30;;;5.75;;
21562;SDS011;10942;47.894;11.424;2023-06-10T01:15:24;7.97;;;5.90;;
21562;SDS011;10942;47.894;11.424;2023-06-10T01:17:57;7.00;;;5.45;;
21562;SDS011;10942;47.894;11.424;2023-06-10T01:20:24;7.05;;;5.72;;
21562;SDS011;10942;47.894;11.424;2023-06-10T01:22:52;10.40;;;6.50;;
21562;SDS011;10942;47.894;11.424;2023-06-10T01:25:20;6.97;;;5.18;;
21562;SDS011;10942;47.894;11.424;2023-06-10T01:27:52;6.90;;;5.68;;
21562;SDS011;10942;47.894;11.424;2023-06-10T01:30:19;8.73;;;5.63;;
21562;SDS011;10942;47.894;11.424;2023-06-10T01:32:50;8.00;;;6.22;;
21562;SDS011;10942;47.894;11.424;2023-06-10T01:35:16;8.93;;;5.85;;
21562;SDS011;10942;47.894;11.424;2023-06-10T01:37:44;7.80;;;5.97;;
21562;SDS011;10942;47.894;11.424;2023-06-10T01:40:11;9.07;;;6.57;;
21562;SDS011;10942;47.894;11.424;2023-06-10T01:42:37;9.40;;;6.88;;
21562;SDS011;10942;47.894;11.424;2023-06-10T01:45:04;9.25;;;6.30;;
21562;SDS011;10942;47.894;11.424;2023-06-10T01:47:30;8.23;;;6.40;;
21562;SDS011;10942;47.894;11.424;2023-06-10T01:49:58;7.75;;;6.03;;
21562;SDS011;10942;47.894;11.424;2023-06-10T01:52:25;9.00;;;5.57;;
21562;SDS011;10942;47.894;11.424;2023-06-10T01:54:51;8.52;;;6.07;;
21562;SDS011;10942;47.894;11.424;2023-06-10T01:57:17;8.48;;;5.80;;
21562;SDS011;10942;47.894;11.424;2023-06-10T01:59:44;9.00;;;5.70;;
21562;SDS011;10942;47.894;11.424;2023-06-10T02:02:11;8.35;;;5.88;;
21562;SDS011;10942;47.894;11.424;2023-06-10T02:04:37;8.43;;;5.43;;
21562;SDS011;10942;47.894;11.424;2023-06-10T02:07:03;10.43;;;6.95;;
21562;SDS011;10942;47.894;11.424;2023-06-10T02:09:31;7.68;;;5.82;;
21562;SDS011;10942;47.894;11.424;2023-06-10T02:12:00;8.55;;;6.13;;
21562;SDS011;10942;47.894;11.424;2023-06-10T02:14:26;7.95;;;6.15;;
21562;SDS011;10942;47.894;11.424;2023-06-10T02:16:52;8.38;;;6.07;;
21562;SDS011;10942;47.894;11.424;2023-06-10T02:19:21;8.20;;;6.25;;
21562;SDS011;10942;47.894;11.424;2023-06-10T02:21:47;8.45;;;6.25;;
21562;SDS011;10942;47.894;11.424;2023-06-10T02:24:13;7.35;;;6.00;;
21562;SDS011;10942;47.894;11.424;2023-06-10T02:26:39;7.97;;;6.15;;
21562;SDS011;10942;47.894;11.424;2023-06-10T02:29:05;7.38;;;5.90;;
21562;SDS011;10942;47.894;11.424;2023-06-10T02:31:31;8.35;;;6.38;;
21562;SDS011;10942;47.894;11.424;2023-06-10T02:33:57;9.18;;;6.72;;
21562;SDS011;10942;47.894;11.424;2023-06-10T02:36:24;9.35;;;6.35;;
21562;SDS011;10942;47.894;11.424;2023-06-10T02:38:53;8.95;;;6.10;;
21562;SDS011;10942;47.894;11.424;2023-06-10T02:41:20;8.73;;;6.18;;
21562;SDS011;10942;47.894;11.424;2023-06-10T02:43:47;7.72;;;6.28;;
21562;SDS011;10942;47.894;11.424;2023-06-10T02:46:13;8.43;;;6.38;;
21562;SDS011;10942;47.894;11.424;2023-06-10T02:48:45;8.07;;;6.30;;
21562;SDS011;10942;47.894;11.424;2023-06-10T02:51:14;9.40;;;6.57;;
21562;SDS011;10942;47.894;11.424;2023-06-10T02:53:43;9.10;;;6.63;;
21562;SDS011;10942;47.894;11.424;2023-06-10T02:56:11;8.23;;;6.28;;
21562;SDS011;10942;47.894;11.424;2023-06-10T02:58:38;9.38;;;6.30;;
21562;SDS011;10942;47.894;11.424;2023-06-10T03:01:05;10.55;;;6.18;;
21562;SDS011;10942;47.894;11.424;2023-06-10T03:03:40;8.55;;;6.18;;
21562;SDS011;10942;47.894;11.424;2023-06-10T03:06:10;7.78;;;5.95;;
21562;SDS011;10942;47.894;11.424;2023-06-10T03:08:36;7.38;;;6.18;;
21562;SDS011;10942;47.894;11.424;2023-06-10T03:11:07;8.27;;;6.70;;
21562;SDS011;10942;47.894;11.424;2023-06-10T03:13:34;9.77;;;6.05;;
21562;SDS011;10942;47.894;11.424;2023-06-10T03:16:02;9.35;;;7.30;;
21562;SDS011;10942;47.894;11.424;2023-06-10T03:18:29;10.88;;;6.75;;
21562;SDS011;10942;47.894;11.424;2023-06-10T03:20:56;8.10;;;6.65;;
21562;SDS011;10942;47.894;11.424;2023-06-10T03:23:24;9.10;;;7.00;;
21562;SDS011;10942;47.894;11.424;2023-06-10T03:25:52;9.23;;;7.55;;
21562;SDS011;10942;47.894;11.424;2023-06-10T03:28:19;8.85;;;6.60;;
21562;SDS011;10942;47.894;11.424;2023-06-10T03:30:47;9.27;;;6.97;;
21562;SDS011;10942;47.894;11.424;2023-06-10T03:33:13;9.05;;;6.32;;
21562;SDS011;10942;47.894;11.424;2023-06-10T03:35:40;9.18;;;7.07;;
21562;SDS011;10942;47.894;11.424;2023-06-10T03:38:07;8.68;;;6.50;;
21562;SDS011;10942;47.894;11.424;2023-06-10T03:40:33;8.60;;;6.82;;
21562;SDS011;10942;47.894;11.424;2023-06-10T03:43:00;9.70;;;6.80;;
21562;SDS011;10942;47.894;11.424;2023-06-10T03:45:26;7.80;;;6.05;;
21562;SDS011;10942;47.894;11.424;2023-06-10T03:47:53;8.50;;;6.60;;
21562;SDS011;10942;47.894;11.424;2023-06-10T03:50:25;8.20;;;6.40;;
21562;SDS011;10942;47.894;11.424;2023-06-10T03:52:51;7.75;;;6.45;;
21562;SDS011;10942;47.894;11.424;2023-06-10T03:55:20;8.52;;;6.90;;
21562;SDS011;10942;47.894;11.424;2023-06-10T03:57:47;9.00;;;6.40;;
21562;SDS011;10942;47.894;11.424;2023-06-10T04:00:14;7.80;;;6.20;;
21562;SDS011;10942;47.894;11.424;2023-06-10T04:02:41;9.18;;;6.82;;
21562;SDS011;10942;47.894;11.424;2023-06-10T04:05:14;8.23;;;6.43;;
21562;SDS011;10942;47.894;11.424;2023-06-10T04:07:41;7.60;;;6.38;;
21562;SDS011;10942;47.894;11.424;2023-06-10T04:10:08;9.10;;;6.50;;
21562;SDS011;10942;47.894;11.424;2023-06-10T04:12:35;8.35;;;6.30;;
21562;SDS011;10942;47.894;11.424;2023-06-10T04:15:01;8.57;;;5.82;;
21562;SDS011;10942;47.894;11.424;2023-06-10T04:17:28;8.73;;;6.60;;
21562;SDS011;10942;47.894;11.424;2023-06-10T04:19:54;7.43;;;6.50;;
21562;SDS011;10942;47.894;11.424;2023-06-10T04:22:21;8.57;;;6.70;;
21562;SDS011;10942;47.894;11.424;2023-06-10T04:24:48;8.57;;;6.70;;
21562;SDS011;10942;47.894;11.424;2023-06-10T04:27:14;10.07;;;6.70;;
21562;SDS011;10942;47.894;11.424;2023-06-10T04:29:41;8.65;;;6.55;;
21562;SDS011;10942;47.894;11.424;2023-06-10T04:32:07;7.15;;;5.90;;
21562;SDS011;10942;47.894;11.424;2023-06-10T04:34:34;9.55;;;7.00;;
21562;SDS011;10942;47.894;11.424;2023-06-10T04:37:01;9.43;;;7.10;;
21562;SDS011;10942;47.894;11.424;2023-06-10T04:39:27;9.43;;;6.80;;
21562;SDS011;10942;47.894;11.424;2023-06-10T04:41:56;9.43;;;6.65;;
21562;SDS011;10942;47.894;11.424;2023-06-10T04:44:22;8.90;;;7.22;;
21562;SDS011;10942;47.894;11.424;2023-06-10T04:46:48;9.13;;;6.85;;
21562;SDS011;10942;47.894;11.424;2023-06-10T04:49:14;8.85;;;7.13;;
21562;SDS011;10942;47.894;11.424;2023-06-10T04:51:41;9.32;;;7.22;;
21562;SDS011;10942;47.894;11.424;2023-06-10T04:54:07;10.35;;;8.10;;
21562;SDS011;10942;47.894;11.424;2023-06-10T04:56:33;10.80;;;7.65;;
21562;SDS011;10942;47.894;11.424;2023-06-10T04:58:59;10.90;;;7.85;;
21562;SDS011;10942;47.894;11.424;2023-06-10T05:01:25;9.18;;;7.38;;
21562;SDS011;10942;47.894;11.424;2023-06-10T05:03:52;10.13;;;7.97;;
21562;SDS011;10942;47.894;11.424;2023-06-10T05:06:19;9.70;;;7.43;;
21562;SDS011;10942;47.894;11.424;2023-06-10T05:08:45;9.77;;;7.53;;
21562;SDS011;10942;47.894;11.424;2023-06-10T05:11:11;9.13;;;7.40;;
21562;SDS011;10942;47.894;11.424;2023-06-10T05:13:37;9.40;;;7.20;;
21562;SDS011;10942;47.894;11.424;2023-06-10T05:16:05;8.18;;;7.00;;
21562;SDS011;10942;47.894;11.424;2023-06-10T05:18:32;10.15;;;7.55;;
21562;SDS011;10942;47.894;11.424;2023-06-10T05:20:58;7.80;;;7.00;;
21562;SDS011;10942;47.894;11.424;2023-06-10T05:23:24;8.77;;;7.07;;
21562;SDS011;10942;47.894;11.424;2023-06-10T05:25:50;8.02;;;7.10;;
21562;SDS011;10942;47.894;11.424;2023-06-10T05:28:16;9.82;;;7.88;;
21562;SDS011;10942;47.894;11.424;2023-06-10T05:30:43;9.70;;;7.00;;
21562;SDS011;10942;47.894;11.424;2023-06-10T05:33:09;9.93;;;7.00;;
21562;SDS011;10942;47.894;11.424;2023-06-10T05:35:35;12.32;;;7.20;;
21562;SDS011;10942;47.894;11.424;2023-06-10T05:38:00;8.35;;;7.32;;
21562;SDS011;10942;47.894;11.424;2023-06-10T05:40:27;10.23;;;6.82;;
21562;SDS011;10942;47.894;11.424;2023-06-10T05:42:53;9.90;;;6.70;;
21562;SDS011;10942;47.894;11.424;2023-06-10T05:45:18;11.13;;;7.38;;
21562;SDS011;10942;47.894;11.424;2023-06-10T05:47:44;9.02;;;6.75;;
21562;SDS011;10942;47.894;11.424;2023-06-10T05:50:10;9.48;;;7.30;;
21562;SDS011;10942;47.894;11.424;2023-06-10T05:52:36;11.32;;;6.90;;
21562;SDS011;10942;47.894;11.424;2023-06-10T05:55:02;9.15;;;6.88;;
21562;SDS011;10942;47.894;11.424;2023-06-10T05:57:28;8.52;;;7.30;;
21562;SDS011;10942;47.894;11.424;2023-06-10T05:59:54;9.68;;;7.57;;
21562;SDS011;10942;47.894;11.424;2023-06-10T06:02:20;9.52;;;8.23;;
21562;SDS011;10942;47.894;11.424;2023-06-10T06:04:46;9.57;;;8.65;;
21562;SDS011;10942;47.894;11.424;2023-06-10T06:07:12;10.18;;;8.85;;
21562;SDS011;10942;47.894;11.424;2023-06-10T06:09:38;9.75;;;8.77;;
21562;SDS011;10942;47.894;11.424;2023-06-10T06:12:04;10.70;;;9.65;;
21562;SDS011;10942;47.894;11.424;2023-06-10T06:14:31;10.02;;;9.13;;
21562;SDS011;10942;47.894;11.424;2023-06-10T06:16:57;10.43;;;9.40;;
21562;SDS011;10942;47.894;11.424;2023-06-10T06:19:23;11.38;;;10.27;;
21562;SDS011;10942;47.894;11.424;2023-06-10T06:21:50;11.70;;;10.70;;
21562;SDS011;10942;47.894;11.424;2023-06-10T06:24:16;10.48;;;9.50;;
21562;SDS011;10942;47.894;11.424;2023-06-10T06:26:42;11.10;;;10.05;;
21562;SDS011;10942;47.894;11.424;2023-06-10T06:29:08;10.65;;;9.68;;
21562;SDS011;10942;47.894;11.424;2023-06-10T06:31:34;10.75;;;9.75;;
21562;SDS011;10942;47.894;11.424;2023-06-10T06:34:00;10.73;;;9.73;;
21562;SDS011;10942;47.894;11.424;2023-06-10T06:36:26;9.40;;;7.55;;
21562;SDS011;10942;47.894;11.424;2023-06-10T06:38:52;8.10;;;6.72;;
21562;SDS011;10942;47.894;11.424;2023-06-10T06:41:20;9.30;;;6.90;;
21562;SDS011;10942;47.894;11.424;2023-06-10T06:43:47;8.85;;;6.72;;
21562;SDS011;10942;47.894;11.424;2023-06-10T06:46:23;14.45;;;10.73;;
21562;SDS011;10942;47.894;11.424;2023-06-10T06:48:49;28.60;;;19.05;;
21562;SDS011;10942;47.894;11.424;2023-06-10T06:51:15;7.18;;;6.22;;
21562;SDS011;10942;47.894;11.424;2023-06-10T06:53:41;8.32;;;5.95;;
21562;SDS011;10942;47.894;11.424;2023-06-10T06:56:10;7.50;;;6.05;;
21562;SDS011;10942;47.894;11.424;2023-06-10T06:58:36;7.00;;;5.78;;
21562;SDS011;10942;47.894;11.424;2023-06-10T07:01:02;7.78;;;6.22;;
21562;SDS011;10942;47.894;11.424;2023-06-10T07:03:28;8.52;;;6.43;;
21562;SDS011;10942;47.894;11.424;2023-06-10T07:05:55;7.10;;;6.05;;
21562;SDS011;10942;47.894;11.424;2023-06-10T07:08:20;7.47;;;6.00;;
21562;SDS011;10942;47.894;11.424;2023-06-10T07:10:46;7.28;;;6.07;;
21562;SDS011;10942;47.894;11.424;2023-06-10T07:13:11;7.95;;;6.15;;
21562;SDS011;10942;47.894;11.424;2023-06-10T07:15:38;6.97;;;5.43;;
21562;SDS011;10942;47.894;11.424;2023-06-10T07:18:04;7.25;;;5.32;;
21562;SDS011;10942;47.894;11.424;2023-06-10T07:20:31;5.93;;;5.20;;
21562;SDS011;10942;47.894;11.424;2023-06-10T07:22:57;7.00;;;5.63;;
21562;SDS011;10942;47.894;11.424;2023-06-10T07:25:22;6.28;;;5.50;;
21562;SDS011;10942;47.894;11.424;2023-06-10T07:27:48;5.95;;;4.75;;
21562;SDS011;10942;47.894;11.424;2023-06-10T07:30:14;6.70;;;5.15;;
21562;SDS011;10942;47.894;11.424;2023-06-10T07:32:40;6.68;;;5.15;;
21562;SDS011;10942;47.894;11.424;2023-06-10T07:35:08;7.38;;;5.65;;
21562;SDS011;10942;47.894;11.424;2023-06-10T07:37:35;6.88;;;5.95;;
21562;SDS011;10942;47.894;11.424;2023-06-10T07:40:01;7.43;;;5.95;;
21562;SDS011;10942;47.894;11.424;2023-06-10T07:42:27;8.38;;;5.47;;
21562;SDS011;10942;47.894;11.424;2023-06-10T07:44:53;5.63;;;4.97;;
21562;SDS011;10942;47.894;11.424;2023-06-10T07:47:19;6.35;;;5.20;;
21562;SDS011;10942;47.894;11.424;2023-06-10T07:49:45;7.60;;;5.00;;
21562;SDS011;10942;47.894;11.424;2023-06-10T07:52:11;6.22;;;4.68;;
21562;SDS011;10942;47.894;11.424;2023-06-10T07:54:37;6.32;;;4.25;;
21562;SDS011;10942;47.894;11.424;2023-06-10T07:57:03;7.10;;;4.68;;
21562;SDS011;10942;47.894;11.424;2023-06-10T07:59:29;4.68;;;4.07;;
21562;SDS011;10942;47.894;11.424;2023-06-10T08:01:55;5.43;;;4.00;;
21562;SDS011;10942;47.894;11.424;2023-06-10T08:04:22;8.35;;;4.50;;
21562;SDS011;10942;47.894;11.424;2023-06-10T08:06:48;4.63;;;3.85;;
21562;SDS011;10942;47.894;11.424;2023-06-10T08:09:14;6.43;;;4.20;;
21562;SDS011;10942;47.894;11.424;2023-06-10T08:11:40;5.28;;;4.50;;
21562;SDS011;10942;47.894;11.424;2023-06-10T08:14:06;5.72;;;4.25;;
21562;SDS011;10942;47.894;11.424;2023-06-10T08:16:31;5.60;;;4.07;;
21562;SDS011;10942;47.894;11.424;2023-06-10T08:18:58;5.72;;;3.92;;
21562;SDS011;10942;47.894;11.424;2023-06-10T08:21:24;4.68;;;3.92;;
21562;SDS011;10942;47.894;11.424;2023-06-10T08:23:52;5.47;;;4.15;;
21562;SDS011;10942;47.894;11.424;2023-06-10T08:26:19;5.18;;;4.00;;
21562;SDS011;10942;47.894;11.424;2023-06-10T08:28:45;4.60;;;3.42;;
21562;SDS011;10942;47.894;11.424;2023-06-10T08:31:11;4.80;;;3.72;;
21562;SDS011;10942;47.894;11.424;2023-06-10T08:33:37;5.82;;;3.95;;
21562;SDS011;10942;47.894;11.424;2023-06-10T08:36:02;6.00;;;4.30;;
21562;SDS011;10942;47.894;11.424;2023-06-10T08:38:28;6.25;;;4.50;;
21562;SDS011;10942;47.894;11.424;2023-06-10T08:40:55;6.80;;;4.03;;
21562;SDS011;10942;47.894;11.424;2023-06-10T08:43:31;4.90;;;3.17;;
21562;SDS011;10942;47.894;11.424;2023-06-10T08:46:00;4.43;;;3.67;;
21562;SDS011;10942;47.894;11.424;2023-06-10T08:48:29;5.13;;;3.60;;
21562;SDS011;10942;47.894;11.424;2023-06-10T08:50:57;4.55;;;3.58;;
21562;SDS011;10942;47.894;11.424;2023-06-10T08:53:23;4.07;;;3.67;;
21562;SDS011;10942;47.894;11.424;2023-06-10T08:55:50;5.50;;;4.07;;
21562;SDS011;10942;47.894;11.424;2023-06-10T08:58:19;4.05;;;3.25;;
21562;SDS011;10942;47.894;11.424;2023-06-10T09:00:45;5.15;;;3.97;;
21562;SDS011;10942;47.894;11.424;2023-06-10T09:03:11;4.57;;;3.83;;
21562;SDS011;10942;47.894;11.424;2023-06-10T09:05:38;6.05;;;5.32;;
21562;SDS011;10942;47.894;11.424;2023-06-10T09:08:05;6.75;;;4.78;;
21562;SDS011;10942;47.894;11.424;2023-06-10T09:10:32;5.50;;;4.50;;
21562;SDS011;10942;47.894;11.424;2023-06-10T09:12:59;7.10;;;4.90;;
21562;SDS011;10942;47.894;11.424;2023-06-10T09:15:25;6.05;;;4.63;;
21562;SDS011;10942;47.894;11.424;2023-06-10T09:17:51;6.35;;;5.15;;
21562;SDS011;10942;47.894;11.424;2023-06-10T09:20:17;5.63;;;4.32;;
21562;SDS011;10942;47.894;11.424;2023-06-10T09:22:43;6.85;;;4.28;;
21562;SDS011;10942;47.894;11.424;2023-06-10T09:25:10;6.05;;;4.00;;
21562;SDS011;10942;47.894;11.424;2023-06-10T09:27:46;7.57;;;4.40;;
21562;SDS011;10942;47.894;11.424;2023-06-10T09:30:33;6.68;;;4.25;;
21562;SDS011;10942;47.894;11.424;2023-06-10T09:33:01;5.30;;;4.22;;
21562;SDS011;10942;47.894;11.424;2023-06-10T09:35:28;5.60;;;4.10;;
21562;SDS011;10942;47.894;11.424;2023-06-10T09:37:55;7.20;;;4.60;;
21562;SDS011;10942;47.894;11.424;2023-06-10T09:40:21;6.68;;;4.95;;
21562;SDS011;10942;47.894;11.424;2023-06-10T09:42:52;5.63;;;4.70;;
21562;SDS011;10942;47.894;11.424;2023-06-10T09:45:20;5.38;;;4.60;;
21562;SDS011;10942;47.894;11.424;2023-06-10T09:47:47;4.88;;;3.95;;
21562;SDS011;10942;47.894;11.424;2023-06-10T09:50:13;6.47;;;4.55;;
21562;SDS011;10942;47.894;11.424;2023-06-10T09:52:38;6.65;;;4.18;;
21562;SDS011;10942;47.894;11.424;2023-06-10T09:55:07;5.18;;;4.07;;
21562;SDS011;10942;47.894;11.424;2023-06-10T09:57:34;5.18;;;3.90;;
21562;SDS011;10942;47.894;11.424;2023-06-10T10:00:10;4.88;;;3.80;;
21562;SDS011;10942;47.894;11.424;2023-06-10T10:02:44;7.05;;;4.55;;
21562;SDS011;10942;47.894;11.424;2023-06-10T10:05:15;5.15;;;3.90;;
21562;SDS011;10942;47.894;11.424;2023-06-10T10:07:42;6.47;;;3.75;;
21562;SDS011;10942;47.894;11.424;2023-06-10T10:10:09;5.93;;;4.32;;
21562;SDS011;10942;47.894;11.424;2023-06-10T10:12:36;5.05;;;3.65;;
21562;SDS011;10942;47.894;11.424;2023-06-10T10:15:03;5.28;;;4.00;;
21562;SDS011;10942;47.894;11.424;2023-06-10T10:20:14;5.00;;;3.92;;
21562;SDS011;10942;47.894;11.424;2023-06-10T10:22:45;4.95;;;4.00;;
21562;SDS011;10942;47.894;11.424;2023-06-10T10:25:19;5.90;;;4.25;;
21562;SDS011;10942;47.894;11.424;2023-06-10T10:27:51;7.47;;;4.25;;
21562;SDS011;10942;47.894;11.424;2023-06-10T10:30:20;5.80;;;3.67;;
21562;SDS011;10942;47.894;11.424;2023-06-10T10:35:23;5.18;;;3.88;;
21562;SDS011;10942;47.894;11.424;2023-06-10T10:37:53;5.05;;;3.95;;
21562;SDS011;10942;47.894;11.424;2023-06-10T10:40:20;5.55;;;3.60;;
21562;SDS011;10942;47.894;11.424;2023-06-10T10:42:47;6.00;;;3.92;;
21562;SDS011;10942;47.894;11.424;2023-06-10T10:45:14;5.25;;;3.25;;
21562;SDS011;10942;47.894;11.424;2023-06-10T10:47:41;4.97;;;3.42;;
21562;SDS011;10942;47.894;11.424;2023-06-10T10:50:15;4.90;;;3.75;;
21562;SDS011;10942;47.894;11.424;2023-06-10T10:55:19;4.78;;;2.92;;
21562;SDS011;10942;47.894;11.424;2023-06-10T10:57:45;4.22;;;3.38;;
21562;SDS011;10942;47.894;11.424;2023-06-10T11:00:25;4.28;;;3.15;;
21562;SDS011;10942;47.894;11.424;2023-06-10T11:02:52;4.38;;;3.58;;
21562;SDS011;10942;47.894;11.424;2023-06-10T11:05:20;4.85;;;3.38;;
21562;SDS011;10942;47.894;11.424;2023-06-10T11:07:57;5.93;;;3.35;;
21562;SDS011;10942;47.894;11.424;2023-06-10T11:10:30;5.38;;;3.58;;
21562;SDS011;10942;47.894;11.424;2023-06-10T11:12:57;3.97;;;3.25;;
21562;SDS011;10942;47.894;11.424;2023-06-10T11:15:25;5.65;;;3.45;;
21562;SDS011;10942;47.894;11.424;2023-06-10T11:18:07;4.90;;;3.45;;
21562;SDS011;10942;47.894;11.424;2023-06-10T11:20:44;5.05;;;3.70;;
21562;SDS011;10942;47.894;11.424;2023-06-10T11:31:26;4.78;;;3.75;;
21562;SDS011;10942;47.894;11.424;2023-06-10T11:34:11;5.18;;;3.63;;
21562;SDS011;10942;47.894;11.424;2023-06-10T11:36:39;6.95;;;4.03;;
21562;SDS011;10942;47.894;11.424;2023-06-10T11:39:07;4.50;;;3.40;;
21562;SDS011;10942;47.894;11.424;2023-06-10T11:41:34;4.97;;;3.38;;
21562;SDS011;10942;47.894;11.424;2023-06-10T11:44:01;4.22;;;3.10;;
21562;SDS011;10942;47.894;11.424;2023-06-10T11:46:28;3.90;;;3.10;;
21562;SDS011;10942;47.894;11.424;2023-06-10T11:48:55;4.97;;;3.38;;
21562;SDS011;10942;47.894;11.424;2023-06-10T11:51:26;5.53;;;3.42;;
21562;SDS011;10942;47.894;11.424;2023-06-10T11:53:53;4.17;;;3.07;;
21562;SDS011;10942;47.894;11.424;2023-06-10T11:56:22;4.18;;;3.10;;
21562;SDS011;10942;47.894;11.424;2023-06-10T11:58:54;3.70;;;3.05;;
21562;SDS011;10942;47.894;11.424;2023-06-10T12:01:22;5.22;;;3.38;;
21562;SDS011;10942;47.894;11.424;2023-06-10T12:03:59;4.78;;;2.92;;
21562;SDS011;10942;47.894;11.424;2023-06-10T12:06:29;3.83;;;2.70;;
21562;SDS011;10942;47.894;11.424;2023-06-10T12:09:26;5.82;;;3.00;;
21562;SDS011;10942;47.894;11.424;2023-06-10T12:11:59;4.13;;;2.80;;
21562;SDS011;10942;47.894;11.424;2023-06-10T12:20:09;5.43;;;3.50;;
21562;SDS011;10942;47.894;11.424;2023-06-10T12:22:53;4.15;;;2.90;;
21562;SDS011;10942;47.894;11.424;2023-06-10T12:25:24;4.97;;;3.22;;
21562;SDS011;10942;47.894;11.424;2023-06-10T12:27:55;4.70;;;2.90;;
21562;SDS011;10942;47.894;11.424;2023-06-10T12:30:23;3.78;;;2.80;;
21562;SDS011;10942;47.894;11.424;2023-06-10T12:32:51;4.90;;;2.70;;
21562;SDS011;10942;47.894;11.424;2023-06-10T12:35:21;4.35;;;2.67;;
21562;SDS011;10942;47.894;11.424;2023-06-10T12:37:54;4.38;;;2.63;;
21562;SDS011;10942;47.894;11.424;2023-06-10T12:40:29;3.25;;;2.38;;
21562;SDS011;10942;47.894;11.424;2023-06-10T12:42:56;3.13;;;2.50;;
21562;SDS011;10942;47.894;11.424;2023-06-10T12:45:29;4.38;;;2.75;;
21562;SDS011;10942;47.894;11.424;2023-06-10T12:48:10;4.20;;;2.67;;
21562;SDS011;10942;47.894;11.424;2023-06-10T12:50:41;3.60;;;2.83;;
21562;SDS011;10942;47.894;11.424;2023-06-10T12:53:07;4.00;;;2.80;;
21562;SDS011;10942;47.894;11.424;2023-06-10T12:55:34;3.97;;;2.67;;
21562;SDS011;10942;47.894;11.424;2023-06-10T12:58:00;3.60;;;2.35;;
21562;SDS011;10942;47.894;11.424;2023-06-10T13:00:28;3.35;;;2.40;;
21562;SDS011;10942;47.894;11.424;2023-06-10T13:02:57;4.35;;;2.50;;
21562;SDS011;10942;47.894;11.424;2023-06-10T13:05:25;3.33;;;2.47;;
21562;SDS011;10942;47.894;11.424;2023-06-10T13:07:52;3.88;;;2.47;;
21562;SDS011;10942;47.894;11.424;2023-06-10T13:10:18;2.97;;;2.17;;
21562;SDS011;10942;47.894;11.424;2023-06-10T13:12:44;2.83;;;2.40;;
21562;SDS011;10942;47.894;11.424;2023-06-10T13:15:11;5.50;;;2.42;;
21562;SDS011;10942;47.894;11.424;2023-06-10T13:17:37;3.67;;;2.42;;
21562;SDS011;10942;47.894;11.424;2023-06-10T13:20:04;3.33;;;2.45;;
21562;SDS011;10942;47.894;11.424;2023-06-10T13:22:31;2.80;;;2.03;;
21562;SDS011;10942;47.894;11.424;2023-06-10T13:25:01;4.10;;;2.38;;
21562;SDS011;10942;47.894;11.424;2023-06-10T13:27:32;3.53;;;2.38;;
21562;SDS011;10942;47.894;11.424;2023-06-10T13:29:58;4.22;;;2.28;;
21562;SDS011;10942;47.894;11.424;2023-06-10T13:32:23;3.10;;;2.00;;
21562;SDS011;10942;47.894;11.424;2023-06-10T13:34:49;3.60;;;2.45;;
21562;SDS011;10942;47.894;11.424;2023-06-10T13:37:15;3.53;;;2.40;;
21562;SDS011;10942;47.894;11.424;2023-06-10T13:39:44;3.97;;;2.58;;
21562;SDS011;10942;47.894;11.424;2023-06-10T13:42:13;3.75;;;2.28;;
21562;SDS011;10942;47.894;11.424;2023-06-10T13:44:39;6.47;;;2.28;;
21562;SDS011;10942;47.894;11.424;2023-06-10T13:47:05;3.58;;;2.05;;
21562;SDS011;10942;47.894;11.424;2023-06-10T13:49:31;5.05;;;2.40;;
21562;SDS011;10942;47.894;11.424;2023-06-10T13:51:57;3.45;;;2.20;;
21562;SDS011;10942;47.894;11.424;2023-06-10T13:54:23;3.47;;;2.20;;
21562;SDS011;10942;47.894;11.424;2023-06-10T13:56:49;6.38;;;2.25;;
21562;SDS011;10942;47.894;11.424;2023-06-10T13:59:14;4.03;;;2.50;;
21562;SDS011;10942;47.894;11.424;2023-06-10T14:01:40;5.32;;;2.50;;
21562;SDS011;10942;47.894;11.424;2023-06-10T14:04:06;3.50;;;2.60;;
21562;SDS011;10942;47.894;11.424;2023-06-10T14:06:32;3.95;;;2.75;;
21562;SDS011;10942;47.894;11.424;2023-06-10T14:08:59;3.95;;;2.60;;
21562;SDS011;10942;47.894;11.424;2023-06-10T14:11:25;3.58;;;2.55;;
21562;SDS011;10942;47.894;11.424;2023-06-10T14:13:51;4.10;;;3.03;;
21562;SDS011;10942;47.894;11.424;2023-06-10T14:16:16;5.15;;;3.13;;
21562;SDS011;10942;47.894;11.424;2023-06-10T14:18:42;4.13;;;2.78;;
21562;SDS011;10942;47.894;11.424;2023-06-10T14:21:08;3.53;;;2.63;;
21562;SDS011;10942;47.894;11.424;2023-06-10T14:23:34;4.30;;;3.08;;
21562;SDS011;10942;47.894;11.424;2023-06-10T14:26:00;4.18;;;2.80;;
21562;SDS011;10942;47.894;11.424;2023-06-10T14:28:27;6.15;;;3.60;;
21562;SDS011;10942;47.894;11.424;2023-06-10T14:30:54;5.00;;;3.40;;
21562;SDS011;10942;47.894;11.424;2023-06-10T14:33:19;4.88;;;3.17;;
21562;SDS011;10942;47.894;11.424;2023-06-10T14:35:45;5.75;;;3.70;;
21562;SDS011;10942;47.894;11.424;2023-06-10T14:38:11;4.43;;;3.45;;
21562;SDS011;10942;47.894;11.424;2023-06-10T14:40:36;4.03;;;2.97;;
21562;SDS011;10942;47.894;11.424;2023-06-10T14:43:02;4.75;;;3.65;;
21562;SDS011;10942;47.894;11.424;2023-06-10T14:45:34;12.57;;;8.07;;
21562;SDS011;10942;47.894;11.424;2023-06-10T14:48:04;5.47;;;3.70;;
21562;SDS011;10942;47.894;11.424;2023-06-10T14:50:30;5.90;;;3.75;;
21562;SDS011;10942;47.894;11.424;2023-06-10T14:52:55;4.55;;;3.17;;
21562;SDS011;10942;47.894;11.424;2023-06-10T14:55:21;4.72;;;3.00;;
21562;SDS011;10942;47.894;11.424;2023-06-10T14:57:49;4.68;;;3.38;;